createdAt,value
2018-12-01T00:00:36.833Z,51.90
2018-12-01T00:03:06.249Z,78.33
2018-12-01T00:05:35.749Z,90.67
2018-12-01T00:08:05.197Z,76.17
2018-12-01T00:10:34.595Z,57.57
2018-12-01T00:13:04.037Z,54.40
2018-12-01T00:15:33.720Z,56.00
2018-12-01T00:18:03.257Z,87.97
2018-12-01T00:20:34.482Z,44.50
2018-12-01T00:23:03.909Z,47.97
2018-12-01T00:25:33.287Z,50.20
2018-12-01T00:28:02.709Z,46.63
2018-12-01T00:30:32.093Z,46.93
2018-12-01T00:33:01.530Z,47.60
2018-12-01T00:35:30.930Z,49.77
2018-12-01T00:38:00.356Z,46.90
2018-12-01T00:40:29.801Z,47.47
2018-12-01T00:42:59.188Z,47.50
2018-12-01T00:45:28.607Z,73.43
2018-12-01T00:47:57.950Z,46.17
2018-12-01T00:50:27.388Z,46.30
2018-12-01T00:52:56.778Z,38.97
2018-12-01T00:55:26.198Z,38.23
2018-12-01T00:57:55.577Z,38.17
2018-12-01T01:00:26.886Z,38.30
2018-12-01T01:02:57.845Z,41.20
2018-12-01T01:05:28.971Z,88.40
2018-12-01T01:07:59.163Z,86.53
2018-12-01T01:10:29.607Z,51.43
2018-12-01T01:12:58.973Z,77.50
2018-12-01T01:15:28.360Z,66.73
2018-12-01T01:17:57.746Z,135.43
2018-12-01T01:20:27.175Z,131.43
2018-12-01T01:22:56.576Z,85.80
2018-12-01T01:25:25.988Z,92.30
2018-12-01T01:27:55.346Z,137.47
2018-12-01T01:30:25.057Z,101.17
2018-12-01T01:33:05.430Z,62.30
2018-12-01T01:35:34.830Z,110.70
2018-12-01T01:38:04.214Z,97.03
2018-12-01T01:40:33.630Z,55.33
2018-12-01T01:43:02.986Z,57.83
2018-12-01T01:45:32.425Z,50.73
2018-12-01T01:48:01.825Z,51.27
2018-12-01T01:50:31.230Z,51.03
2018-12-01T01:53:00.618Z,48.97
2018-12-01T01:55:30.067Z,40.17
2018-12-01T01:57:59.445Z,48.13
2018-12-01T02:00:28.889Z,36.70
2018-12-01T02:02:58.295Z,34.33
2018-12-01T02:05:27.725Z,34.90
2018-12-01T02:07:57.119Z,33.00
2018-12-01T02:10:26.559Z,36.47
2018-12-01T02:12:55.989Z,38.37
2018-12-01T02:15:25.393Z,37.77
2018-12-01T02:17:54.750Z,38.40
2018-12-01T02:20:24.178Z,76.57
2018-12-01T02:23:08.426Z,35.50
2018-12-01T02:25:52.718Z,34.73
2018-12-01T02:28:22.089Z,32.90
2018-12-01T02:30:51.485Z,31.57
2018-12-01T02:33:20.855Z,33.87
2018-12-01T02:35:50.260Z,32.80
2018-12-01T02:38:19.652Z,36.43
2018-12-01T02:40:49.167Z,32.67
2018-12-01T02:43:18.553Z,79.53
2018-12-01T02:45:59.012Z,80.50
2018-12-01T02:48:28.439Z,41.80
2018-12-01T02:50:57.880Z,106.70
2018-12-01T02:53:27.254Z,81.27
2018-12-01T02:55:56.695Z,109.43
2018-12-01T02:58:26.069Z,61.87
2018-12-01T03:00:55.496Z,39.60
2018-12-01T03:03:24.940Z,37.13
2018-12-01T03:05:54.385Z,34.70
2018-12-01T03:08:23.765Z,55.40
2018-12-01T03:10:53.161Z,44.50
2018-12-01T03:13:22.615Z,35.60
2018-12-01T03:15:52.011Z,34.40
2018-12-01T03:18:21.456Z,34.57
2018-12-01T03:20:50.858Z,36.43
2018-12-01T03:23:20.279Z,32.77
2018-12-01T03:25:49.682Z,32.40
2018-12-01T03:28:19.090Z,37.90
2018-12-01T03:30:48.670Z,34.43
2018-12-01T03:33:18.044Z,36.80
2018-12-01T03:35:47.417Z,32.77
2018-12-01T03:38:16.804Z,34.33
2018-12-01T03:40:48.167Z,36.27
2018-12-01T03:43:17.563Z,36.13
2018-12-01T03:45:46.936Z,31.57
2018-12-01T03:48:16.342Z,31.57
2018-12-01T03:50:45.721Z,32.93
2018-12-01T03:53:15.084Z,35.17
2018-12-01T03:55:44.469Z,33.53
2018-12-01T03:58:13.827Z,37.80
2018-12-01T04:00:43.173Z,51.57
2018-12-01T04:03:12.571Z,35.80
2018-12-01T04:05:41.925Z,36.77
2018-12-01T04:08:11.366Z,37.00
2018-12-01T04:10:40.768Z,37.37
2018-12-01T04:13:10.156Z,40.10
2018-12-01T04:15:39.467Z,38.57
2018-12-01T04:18:08.865Z,35.90
2018-12-01T04:20:38.246Z,41.43
2018-12-01T04:23:07.619Z,41.27
2018-12-01T04:25:36.989Z,40.00
2018-12-01T04:28:06.350Z,40.00
2018-12-01T04:30:35.699Z,38.73
2018-12-01T04:33:05.492Z,37.80
2018-12-01T04:35:34.918Z,37.97
2018-12-01T04:38:04.270Z,32.23
2018-12-01T04:40:33.643Z,33.00
2018-12-01T04:43:02.994Z,33.50
2018-12-01T04:45:32.424Z,37.77
2018-12-01T04:48:01.798Z,35.47
2018-12-01T04:50:31.201Z,36.10
2018-12-01T04:53:00.597Z,37.60
2018-12-01T04:55:29.978Z,35.27
2018-12-01T04:57:59.496Z,37.03
2018-12-01T05:00:28.886Z,34.90
2018-12-01T05:02:58.240Z,42.50
2018-12-01T05:05:27.619Z,32.47
2018-12-01T05:07:57.003Z,33.77
2018-12-01T05:10:26.424Z,34.87
2018-12-01T05:12:55.820Z,30.20
2018-12-01T05:15:25.259Z,32.63
2018-12-01T05:17:54.598Z,34.27
2018-12-01T05:20:24.467Z,30.60
2018-12-01T05:22:54.190Z,29.77
2018-12-01T05:25:23.677Z,32.07
2018-12-01T05:27:53.033Z,33.77
2018-12-01T05:30:22.419Z,31.80
2018-12-01T05:32:52.394Z,33.73
2018-12-01T05:35:22.956Z,31.53
2018-12-01T05:37:52.302Z,31.33
2018-12-01T05:40:22.050Z,35.73
2018-12-01T05:42:51.451Z,31.87
2018-12-01T05:45:22.539Z,34.17
2018-12-01T05:47:52.477Z,31.07
2018-12-01T05:50:24.378Z,33.03
2018-12-01T05:52:54.627Z,32.47
2018-12-01T05:55:24.045Z,30.60
2018-12-01T05:57:53.446Z,30.57
2018-12-01T06:00:22.919Z,31.60
2018-12-01T06:02:52.302Z,31.40
2018-12-01T06:05:21.656Z,30.40
2018-12-01T06:07:51.050Z,31.07
2018-12-01T06:10:21.897Z,30.90
2018-12-01T06:12:52.322Z,27.97
2018-12-01T06:15:22.051Z,28.63
2018-12-01T06:17:51.446Z,39.00
2018-12-01T06:20:22.749Z,30.30
2018-12-01T06:22:52.127Z,43.30
2018-12-01T06:25:23.532Z,32.53
2018-12-01T06:27:52.906Z,26.33
2018-12-01T06:30:22.292Z,32.20
2018-12-01T06:32:52.477Z,30.20
2018-12-01T06:35:21.777Z,33.47
2018-12-01T06:37:51.198Z,31.13
2018-12-01T06:40:21.176Z,31.57
2018-12-01T06:42:50.622Z,32.03
2018-12-01T06:45:19.997Z,32.63
2018-12-01T06:47:49.517Z,30.80
2018-12-01T06:50:21.357Z,38.70
2018-12-01T06:52:51.613Z,33.67
2018-12-01T06:55:21.429Z,36.40
2018-12-01T06:57:50.945Z,35.57
2018-12-01T07:00:22.361Z,49.80
2018-12-01T07:02:52.199Z,37.77
2018-12-01T07:05:21.546Z,34.80
2018-12-01T07:07:50.906Z,36.27
2018-12-01T07:10:21.193Z,37.13
2018-12-01T07:12:54.682Z,32.07
2018-12-01T07:15:26.525Z,33.00
2018-12-01T07:17:55.904Z,34.20
2018-12-01T07:20:25.269Z,38.00
2018-12-01T07:22:54.625Z,35.07
2018-12-01T07:25:24.046Z,34.87
2018-12-01T07:27:53.371Z,36.90
2018-12-01T07:30:22.729Z,36.70
2018-12-01T07:32:52.085Z,33.63
2018-12-01T07:35:21.471Z,34.40
2018-12-01T07:37:50.832Z,45.20
2018-12-01T07:40:20.194Z,37.17
2018-12-01T07:42:49.542Z,35.50
2018-12-01T07:45:18.899Z,36.33
2018-12-01T07:47:48.322Z,33.17
2018-12-01T07:50:18.506Z,31.07
2018-12-01T07:52:51.419Z,35.63
2018-12-01T07:55:20.806Z,32.60
2018-12-01T07:57:51.406Z,35.43
2018-12-01T08:00:20.770Z,37.60
2018-12-01T08:02:50.879Z,31.83
2018-12-01T08:05:20.272Z,31.80
2018-12-01T08:07:49.634Z,34.30
2018-12-01T08:10:19.034Z,31.53
2018-12-01T08:12:48.412Z,42.53
2018-12-01T08:15:18.430Z,31.27
2018-12-01T08:17:48.086Z,29.70
2018-12-01T08:20:17.882Z,31.30
2018-12-01T08:22:47.228Z,29.60
2018-12-01T08:25:18.656Z,26.93
2018-12-01T08:27:51.407Z,27.93
2018-12-01T08:30:35.199Z,27.67
2018-12-01T08:33:04.537Z,25.03
2018-12-01T08:35:33.917Z,28.90
2018-12-01T08:38:03.293Z,27.57
2018-12-01T08:40:33.312Z,25.27
2018-12-01T08:43:02.634Z,24.73
2018-12-01T08:45:32.058Z,17.30
2018-12-01T08:48:01.398Z,17.73
2018-12-01T08:50:30.828Z,14.70
2018-12-01T08:53:00.177Z,14.60
2018-12-01T08:55:29.597Z,14.50
2018-12-01T08:57:58.954Z,15.20
2018-12-01T09:00:35.881Z,13.73
2018-12-01T09:03:13.483Z,15.43
2018-12-01T09:05:42.926Z,16.17
2018-12-01T09:08:12.301Z,16.03
2018-12-01T09:10:41.768Z,16.50
2018-12-01T09:13:11.102Z,18.93
2018-12-01T09:15:40.516Z,20.07
2018-12-01T09:18:09.872Z,26.43
2018-12-01T09:20:39.245Z,19.73
2018-12-01T09:23:08.618Z,19.07
2018-12-01T09:25:38.059Z,19.13
2018-12-01T09:28:08.503Z,16.07
2018-12-01T09:30:39.694Z,15.03
2018-12-01T09:33:09.038Z,13.70
2018-12-01T09:35:38.425Z,13.27
2018-12-01T09:38:07.851Z,10.63
2018-12-01T09:40:37.244Z,10.77
2018-12-01T09:43:06.895Z,10.50
2018-12-01T09:45:36.310Z,10.57
2018-12-01T09:48:05.806Z,14.40
2018-12-01T09:50:35.159Z,10.47
2018-12-01T09:53:04.607Z,12.03
2018-12-01T09:55:34.006Z,13.47
2018-12-01T09:58:03.403Z,13.73
2018-12-01T10:00:33.220Z,13.27
2018-12-01T10:03:05.100Z,11.60
2018-12-01T10:05:34.641Z,14.20
2018-12-01T10:08:04.027Z,12.00
2018-12-01T10:10:33.406Z,11.90
2018-12-01T10:13:02.759Z,10.07
2018-12-01T10:15:34.501Z,10.80
2018-12-01T10:18:03.994Z,10.50
2018-12-01T10:20:34.266Z,14.23
2018-12-01T10:23:06.124Z,12.37
2018-12-01T10:25:35.485Z,10.13
2018-12-01T10:28:04.895Z,7.90
2018-12-01T10:30:34.335Z,7.10
2018-12-01T10:33:03.745Z,7.47
2018-12-01T10:35:33.123Z,7.80
2018-12-01T10:38:05.990Z,9.63
2018-12-01T10:40:35.358Z,9.13
2018-12-01T10:43:04.781Z,10.87
2018-12-01T10:45:34.169Z,6.90
2018-12-01T10:48:03.589Z,5.60
2018-12-01T10:50:32.926Z,6.33
2018-12-01T10:53:02.316Z,9.00
2018-12-01T10:55:32.587Z,6.73
2018-12-01T10:58:06.179Z,5.93
2018-12-01T11:00:40.830Z,7.07
2018-12-01T11:03:15.372Z,6.07
2018-12-01T11:05:44.883Z,5.70
2018-12-01T11:08:15.178Z,5.67
2018-12-01T11:10:45.004Z,5.03
2018-12-01T11:13:14.516Z,8.00
2018-12-01T11:15:43.906Z,5.43
2018-12-01T11:18:13.283Z,4.83
2018-12-01T11:20:42.646Z,4.43
2018-12-01T11:23:12.026Z,6.30
2018-12-01T11:25:41.389Z,4.00
2018-12-01T11:28:10.808Z,7.00
2018-12-01T11:30:42.534Z,5.47
2018-12-01T11:33:11.931Z,4.30
2018-12-01T11:35:40.785Z,4.63
2018-12-01T11:38:10.428Z,3.67
2018-12-01T11:40:39.778Z,4.20
2018-12-01T11:43:09.803Z,3.87
2018-12-01T11:45:39.258Z,4.60
2018-12-01T11:48:09.149Z,3.60
2018-12-01T11:50:39.389Z,6.13
2018-12-01T11:53:08.754Z,4.47
2018-12-01T11:55:38.142Z,4.00
2018-12-01T11:58:07.486Z,3.93
2018-12-01T12:00:37.260Z,4.43
2018-12-01T12:03:06.595Z,4.27
2018-12-01T12:05:35.993Z,4.07
2018-12-01T12:08:17.099Z,4.67
2018-12-01T12:10:46.482Z,5.07
2018-12-01T12:13:15.938Z,5.67
2018-12-01T12:15:45.358Z,4.50
2018-12-01T12:18:15.011Z,4.00
2018-12-01T12:20:44.422Z,4.10
2018-12-01T12:23:13.781Z,4.83
2018-12-01T12:25:43.166Z,3.83
2018-12-01T12:28:12.514Z,3.30
2018-12-01T12:30:41.921Z,3.97
2018-12-01T12:33:11.242Z,4.23
2018-12-01T12:35:40.603Z,3.83
2018-12-01T12:38:09.927Z,4.30
2018-12-01T12:40:39.349Z,4.73
2018-12-01T12:43:08.775Z,4.20
2018-12-01T12:45:38.177Z,5.30
2018-12-01T12:48:08.117Z,3.53
2018-12-01T12:50:37.498Z,3.50
2018-12-01T12:53:06.823Z,3.23
2018-12-01T12:55:36.200Z,3.23
2018-12-01T12:58:06.440Z,3.17
2018-12-01T13:00:36.628Z,3.43
2018-12-01T13:03:07.581Z,4.47
2018-12-01T13:05:44.882Z,3.83
2018-12-01T13:08:15.579Z,5.17
2018-12-01T13:10:44.961Z,3.40
2018-12-01T13:13:14.326Z,4.13
2018-12-01T13:15:43.677Z,2.70
2018-12-01T13:18:14.017Z,5.47
2018-12-01T13:20:44.578Z,4.23
2018-12-01T13:23:13.925Z,4.13
2018-12-01T13:25:43.594Z,3.30
2018-12-01T13:28:16.449Z,4.60
2018-12-01T13:30:53.226Z,3.87
2018-12-01T13:33:22.679Z,7.13
2018-12-01T13:35:52.057Z,3.70
2018-12-01T13:38:21.366Z,5.73
2018-12-01T13:40:50.757Z,3.50
2018-12-01T13:43:20.108Z,4.60
2018-12-01T13:45:49.477Z,4.20
2018-12-01T13:48:18.929Z,3.27
2018-12-01T13:50:48.315Z,4.53
2018-12-01T13:53:17.691Z,4.80
2018-12-01T13:55:47.046Z,5.87
2018-12-01T13:58:16.373Z,4.10
2018-12-01T14:00:45.811Z,4.73
2018-12-01T14:03:15.256Z,5.20
2018-12-01T14:05:44.585Z,6.13
2018-12-01T14:08:13.999Z,6.10
2018-12-01T14:10:47.122Z,8.40
2018-12-01T14:13:16.495Z,8.10
2018-12-01T14:15:45.838Z,7.20
2018-12-01T14:18:15.452Z,6.87
2018-12-01T14:20:44.804Z,10.13
2018-12-01T14:23:14.171Z,9.07
2018-12-01T14:25:43.527Z,12.20
2018-12-01T14:28:13.189Z,7.93
2018-12-01T14:30:42.552Z,7.90
2018-12-01T14:33:12.747Z,9.77
2018-12-01T14:35:42.105Z,8.30
2018-12-01T14:38:16.270Z,8.53
2018-12-01T14:40:46.886Z,8.20
2018-12-01T14:43:16.277Z,8.73
2018-12-01T14:45:46.850Z,9.90
2018-12-01T14:48:16.253Z,10.53
2018-12-01T14:50:48.544Z,12.77
2018-12-01T14:53:16.363Z,12.33
2018-12-01T14:55:45.744Z,11.43
2018-12-01T14:58:15.161Z,13.60
2018-12-01T15:00:44.522Z,11.73
2018-12-01T15:03:13.936Z,11.67
2018-12-01T15:05:43.324Z,12.43
2018-12-01T15:08:12.733Z,19.20
2018-12-01T15:10:42.115Z,17.37
2018-12-01T15:13:11.522Z,13.13
2018-12-01T15:15:40.888Z,16.33
2018-12-01T15:18:10.284Z,13.60
2018-12-01T15:20:39.645Z,32.63
2018-12-01T15:23:09.043Z,20.77
2018-12-01T15:25:38.415Z,15.53
2018-12-01T15:28:07.826Z,17.20
2018-12-01T15:30:37.205Z,16.33
2018-12-01T15:33:09.789Z,17.70
2018-12-01T15:35:39.647Z,18.70
2018-12-01T15:38:09.954Z,24.30
2018-12-01T15:40:43.730Z,16.87
2018-12-01T15:43:13.179Z,18.53
2018-12-01T15:45:42.666Z,19.60
2018-12-01T15:48:12.128Z,18.30
2018-12-01T15:50:41.690Z,22.90
2018-12-01T15:53:12.277Z,18.60
2018-12-01T15:55:43.186Z,24.60
2018-12-01T15:58:11.689Z,22.50
2018-12-01T16:00:41.952Z,18.63
2018-12-01T16:03:11.339Z,19.57
2018-12-01T16:05:40.686Z,16.47
2018-12-01T16:08:11.010Z,16.23
2018-12-01T16:10:40.505Z,19.53
2018-12-01T16:13:18.393Z,17.63
2018-12-01T16:15:51.832Z,18.03
2018-12-01T16:18:21.226Z,17.60
2018-12-01T16:20:50.608Z,17.90
2018-12-01T16:23:20.013Z,17.93
2018-12-01T16:25:49.399Z,16.50
2018-12-01T16:28:18.820Z,18.53
2018-12-01T16:30:48.261Z,15.50
2018-12-01T16:33:18.942Z,17.00
2018-12-01T16:35:48.663Z,16.93
2018-12-01T16:38:30.659Z,21.03
2018-12-01T16:41:10.278Z,17.00
2018-12-01T16:43:40.408Z,19.40
2018-12-01T16:46:09.796Z,17.63
2018-12-01T16:48:41.563Z,20.50
2018-12-01T16:51:11.172Z,18.53
2018-12-01T16:53:40.590Z,20.73
2018-12-01T16:56:11.909Z,18.97
2018-12-01T16:58:41.744Z,19.70
2018-12-01T17:01:12.362Z,18.77
2018-12-01T17:03:42.022Z,17.00
2018-12-01T17:06:14.039Z,15.60
2018-12-01T17:08:44.009Z,19.03
2018-12-01T17:11:13.385Z,18.80
2018-12-01T17:13:42.774Z,17.37
2018-12-01T17:16:12.171Z,18.20
2018-12-01T17:18:41.557Z,19.43
2018-12-01T17:21:10.961Z,20.80
2018-12-01T17:23:40.412Z,17.93
2018-12-01T17:26:09.849Z,17.13
2018-12-01T17:28:39.227Z,17.77
2018-12-01T17:31:08.608Z,18.00
2018-12-01T17:33:37.996Z,19.57
2018-12-01T17:36:07.386Z,20.67
2018-12-01T17:38:36.949Z,21.17
2018-12-01T17:41:15.306Z,21.10
2018-12-01T17:44:16.367Z,22.30
2018-12-01T17:46:45.793Z,21.20
2018-12-01T17:49:15.149Z,17.70
2018-12-01T17:51:44.548Z,20.17
2018-12-01T17:54:15.819Z,18.13
2018-12-01T17:56:45.450Z,21.47
2018-12-01T17:59:14.837Z,19.83
2018-12-01T18:01:44.252Z,19.13
2018-12-01T18:04:13.587Z,19.87
2018-12-01T18:06:43.026Z,20.07
2018-12-01T18:09:12.403Z,22.47
2018-12-01T18:11:41.831Z,21.17
2018-12-01T18:14:11.828Z,20.20
2018-12-01T18:16:41.279Z,19.87
2018-12-01T18:19:11.130Z,22.60
2018-12-01T18:21:40.126Z,20.70
2018-12-01T18:24:09.521Z,22.50
2018-12-01T18:26:38.911Z,19.83
2018-12-01T18:29:08.270Z,24.30
2018-12-01T18:31:37.673Z,22.97
2018-12-01T18:34:10.530Z,20.57
2018-12-01T18:36:39.951Z,21.10
2018-12-01T18:39:11.714Z,20.00
2018-12-01T18:41:41.115Z,23.40
2018-12-01T18:44:10.471Z,28.00
2018-12-01T18:46:39.871Z,20.80
2018-12-01T18:49:09.215Z,23.33
2018-12-01T18:51:38.602Z,21.60
2018-12-01T18:54:08.182Z,18.50
2018-12-01T18:56:37.570Z,23.53
2018-12-01T18:59:06.979Z,19.30
2018-12-01T19:01:36.360Z,19.40
2018-12-01T19:04:05.827Z,19.50
2018-12-01T19:06:35.202Z,21.17
2018-12-01T19:09:05.651Z,23.50
2018-12-01T19:11:35.035Z,24.50
2018-12-01T19:14:04.378Z,18.37
2018-12-01T19:16:33.810Z,20.00
2018-12-01T19:19:03.165Z,21.33
2018-12-01T19:21:32.529Z,21.10
2018-12-01T19:24:01.890Z,21.57
2018-12-01T19:26:31.254Z,18.43
2018-12-01T19:29:00.621Z,21.00
2018-12-01T19:31:30.001Z,19.50
2018-12-01T19:33:59.402Z,19.67
2018-12-01T19:36:28.747Z,22.27
2018-12-01T19:38:58.110Z,20.83
2018-12-01T19:41:27.469Z,19.40
2018-12-01T19:43:56.823Z,19.70
2018-12-01T19:46:26.198Z,19.77
2018-12-01T19:48:55.594Z,19.67
2018-12-01T19:51:24.950Z,24.10
2018-12-01T19:53:54.306Z,20.50
2018-12-01T19:56:23.662Z,21.30
2018-12-01T19:58:53.054Z,20.10
2018-12-01T20:01:22.387Z,20.10
2018-12-01T20:03:51.804Z,19.50
2018-12-01T20:06:21.149Z,21.50
2018-12-01T20:08:50.549Z,21.33
2018-12-01T20:11:19.902Z,22.13
2018-12-01T20:13:49.382Z,19.07
2018-12-01T20:16:27.037Z,18.37
2018-12-01T20:18:56.436Z,19.50
2018-12-01T20:21:25.795Z,20.00
2018-12-01T20:23:55.233Z,22.07
2018-12-01T20:26:24.569Z,23.67
2018-12-01T20:28:53.929Z,21.20
2018-12-01T20:31:23.282Z,18.93
2018-12-01T20:33:54.037Z,20.30
2018-12-01T20:36:37.411Z,21.50
2018-12-01T20:39:12.273Z,24.70
2018-12-01T20:41:41.614Z,20.27
2018-12-01T20:44:11.003Z,23.13
2018-12-01T20:46:40.398Z,21.93
2018-12-01T20:49:09.769Z,20.23
2018-12-01T20:51:39.145Z,21.17
2018-12-01T20:54:19.098Z,22.97
2018-12-01T20:56:48.451Z,22.70
2018-12-01T20:59:17.861Z,21.17
2018-12-01T21:01:47.241Z,22.67
2018-12-01T21:04:16.618Z,28.10
2018-12-01T21:06:45.982Z,27.63
2018-12-01T21:09:15.410Z,25.90
2018-12-01T21:11:44.838Z,25.80
2018-12-01T21:14:14.315Z,25.90
2018-12-01T21:16:43.850Z,23.30
2018-12-01T21:19:13.231Z,24.23
2018-12-01T21:21:42.654Z,24.40
2018-12-01T21:24:12.024Z,23.77
2018-12-01T21:26:41.458Z,27.73
2018-12-01T21:29:10.808Z,26.23
2018-12-01T21:31:40.225Z,25.53
2018-12-01T21:34:09.573Z,30.47
2018-12-01T21:36:39.101Z,26.27
2018-12-01T21:39:09.347Z,27.80
2018-12-01T21:41:38.716Z,24.30
2018-12-01T21:44:08.095Z,26.70
2018-12-01T21:46:37.542Z,25.77
2018-12-01T21:49:06.962Z,24.83
2018-12-01T21:51:36.359Z,26.83
2018-12-01T21:54:06.174Z,20.53
2018-12-01T21:56:35.586Z,22.27
2018-12-01T21:59:05.075Z,25.90
2018-12-01T22:01:34.550Z,25.20
2018-12-01T22:04:03.947Z,23.87
2018-12-01T22:06:33.352Z,21.13
2018-12-01T22:09:02.827Z,21.60
2018-12-01T22:11:32.221Z,25.93
2018-12-01T22:14:01.599Z,23.87
2018-12-01T22:16:31.126Z,25.10
2018-12-01T22:19:00.463Z,24.13
2018-12-01T22:21:29.851Z,24.40
2018-12-01T22:23:59.239Z,24.87
2018-12-01T22:26:28.607Z,24.77
2018-12-01T22:28:57.946Z,25.00
2018-12-01T22:31:27.366Z,33.57
2018-12-01T22:33:56.766Z,23.90
2018-12-01T22:36:26.166Z,21.83
2018-12-01T22:38:55.870Z,24.37
2018-12-01T22:41:25.286Z,22.77
2018-12-01T22:43:54.647Z,26.10
2018-12-01T22:46:24.045Z,22.57
2018-12-01T22:48:53.382Z,25.27
2018-12-01T22:51:22.754Z,22.87
2018-12-01T22:53:52.098Z,21.73
2018-12-01T22:56:21.503Z,25.00
2018-12-01T22:58:50.874Z,25.40
2018-12-01T23:01:20.204Z,21.53
2018-12-01T23:03:49.605Z,22.63
2018-12-01T23:06:18.965Z,23.60
2018-12-01T23:08:48.429Z,22.70
2018-12-01T23:11:18.759Z,21.63
2018-12-01T23:13:49.067Z,23.87
2018-12-01T23:16:18.425Z,24.63
2018-12-01T23:18:47.798Z,22.03
2018-12-01T23:21:20.641Z,21.70
2018-12-01T23:23:46.562Z,20.33
2018-12-01T23:26:15.913Z,21.10
2018-12-01T23:28:45.266Z,24.50
2018-12-01T23:31:14.712Z,20.47
2018-12-01T23:33:44.130Z,25.60
2018-12-01T23:36:13.459Z,23.53
2018-12-01T23:38:42.805Z,22.20
2018-12-01T23:41:12.208Z,23.10
2018-12-01T23:43:41.592Z,23.50
2018-12-01T23:46:10.987Z,26.07
2018-12-01T23:48:40.358Z,23.97
2018-12-01T23:51:09.739Z,23.17
2018-12-01T23:53:39.117Z,24.80
2018-12-01T23:56:08.498Z,23.27
2018-12-01T23:58:37.910Z,21.63
